sensor_id;sensor_type;location;lat;lon;timestamp;temperature;humidity
80706;DHT22;70229;48.010;7.852;2023-06-10T00:01:46;22.70;48.50
80706;DHT22;70229;48.010;7.852;2023-06-10T00:04:15;22.60;49.10
80706;DHT22;70229;48.010;7.852;2023-06-10T00:06:45;22.50;49.00
80706;DHT22;70229;48.010;7.852;2023-06-10T00:09:13;22.40;49.10
80706;DHT22;70229;48.010;7.852;2023-06-10T00:11:40;22.70;49.50
80706;DHT22;70229;48.010;7.852;2023-06-10T00:14:05;22.60;49.60
80706;DHT22;70229;48.010;7.852;2023-06-10T00:16:31;22.70;50.10
80706;DHT22;70229;48.010;7.852;2023-06-10T00:18:58;22.10;50.00
80706;DHT22;70229;48.010;7.852;2023-06-10T00:21:27;22.00;49.90
80706;DHT22;70229;48.010;7.852;2023-06-10T00:23:54;22.00;50.40
80706;DHT22;70229;48.010;7.852;2023-06-10T00:26:21;21.80;50.80
80706;DHT22;70229;48.010;7.852;2023-06-10T00:28:47;21.70;50.70
80706;DHT22;70229;48.010;7.852;2023-06-10T00:31:12;21.80;50.60
80706;DHT22;70229;48.010;7.852;2023-06-10T00:33:38;21.60;50.80
80706;DHT22;70229;48.010;7.852;2023-06-10T00:36:04;21.60;51.00
80706;DHT22;70229;48.010;7.852;2023-06-10T00:38:29;21.60;51.00
80706;DHT22;70229;48.010;7.852;2023-06-10T00:40:55;21.60;51.30
80706;DHT22;70229;48.010;7.852;2023-06-10T00:43:20;21.40;51.40
80706;DHT22;70229;48.010;7.852;2023-06-10T00:45:46;21.30;51.70
80706;DHT22;70229;48.010;7.852;2023-06-10T00:48:11;21.30;52.40
80706;DHT22;70229;48.010;7.852;2023-06-10T00:50:37;21.30;51.70
80706;DHT22;70229;48.010;7.852;2023-06-10T00:53:06;21.50;51.80
80706;DHT22;70229;48.010;7.852;2023-06-10T00:55:32;21.50;51.70
80706;DHT22;70229;48.010;7.852;2023-06-10T00:57:58;21.30;51.80
80706;DHT22;70229;48.010;7.852;2023-06-10T01:00:25;21.10;51.90
80706;DHT22;70229;48.010;7.852;2023-06-10T01:02:51;21.00;51.80
80706;DHT22;70229;48.010;7.852;2023-06-10T01:05:19;21.00;52.10
80706;DHT22;70229;48.010;7.852;2023-06-10T01:08:03;21.10;52.10
80706;DHT22;70229;48.010;7.852;2023-06-10T01:10:41;21.00;52.20
80706;DHT22;70229;48.010;7.852;2023-06-10T01:13:09;20.90;52.40
80706;DHT22;70229;48.010;7.852;2023-06-10T01:15:37;20.90;52.20
80706;DHT22;70229;48.010;7.852;2023-06-10T01:18:05;20.80;52.60
80706;DHT22;70229;48.010;7.852;2023-06-10T01:20:34;20.80;53.00
80706;DHT22;70229;48.010;7.852;2023-06-10T01:23:02;20.80;52.80
80706;DHT22;70229;48.010;7.852;2023-06-10T01:25:29;20.70;52.80
80706;DHT22;70229;48.010;7.852;2023-06-10T01:31:16;20.60;53.70
80706;DHT22;70229;48.010;7.852;2023-06-10T01:33:47;20.70;53.80
80706;DHT22;70229;48.010;7.852;2023-06-10T01:36:15;20.60;53.90
80706;DHT22;70229;48.010;7.852;2023-06-10T01:38:43;20.50;53.80
80706;DHT22;70229;48.010;7.852;2023-06-10T01:41:11;20.90;54.10
80706;DHT22;70229;48.010;7.852;2023-06-10T01:43:38;21.10;54.20
80706;DHT22;70229;48.010;7.852;2023-06-10T01:46:04;20.50;54.40
80706;DHT22;70229;48.010;7.852;2023-06-10T01:48:30;20.90;54.70
80706;DHT22;70229;48.010;7.852;2023-06-10T01:50:55;20.40;54.80
80706;DHT22;70229;48.010;7.852;2023-06-10T01:53:22;20.40;54.40
80706;DHT22;70229;48.010;7.852;2023-06-10T01:55:48;20.40;54.40
80706;DHT22;70229;48.010;7.852;2023-06-10T01:58:13;20.90;54.70
80706;DHT22;70229;48.010;7.852;2023-06-10T02:00:39;20.40;54.50
80706;DHT22;70229;48.010;7.852;2023-06-10T02:03:05;20.30;55.80
80706;DHT22;70229;48.010;7.852;2023-06-10T02:05:30;20.40;55.90
80706;DHT22;70229;48.010;7.852;2023-06-10T02:07:56;20.40;55.60
80706;DHT22;70229;48.010;7.852;2023-06-10T02:10:22;20.20;55.40
80706;DHT22;70229;48.010;7.852;2023-06-10T02:12:47;20.20;55.70
80706;DHT22;70229;48.010;7.852;2023-06-10T02:15:13;20.20;56.30
80706;DHT22;70229;48.010;7.852;2023-06-10T02:17:38;20.10;56.40
80706;DHT22;70229;48.010;7.852;2023-06-10T02:20:05;20.00;56.60
80706;DHT22;70229;48.010;7.852;2023-06-10T02:22:32;19.90;57.10
80706;DHT22;70229;48.010;7.852;2023-06-10T02:24:58;19.90;57.50
80706;DHT22;70229;48.010;7.852;2023-06-10T02:27:24;19.70;57.50
80706;DHT22;70229;48.010;7.852;2023-06-10T02:29:50;20.00;56.90
80706;DHT22;70229;48.010;7.852;2023-06-10T02:32:15;19.80;56.80
80706;DHT22;70229;48.010;7.852;2023-06-10T02:34:41;20.10;57.40
80706;DHT22;70229;48.010;7.852;2023-06-10T02:37:08;20.10;57.20
80706;DHT22;70229;48.010;7.852;2023-06-10T02:39:34;19.80;56.60
80706;DHT22;70229;48.010;7.852;2023-06-10T02:41:59;19.80;56.90
80706;DHT22;70229;48.010;7.852;2023-06-10T02:44:25;19.70;57.30
80706;DHT22;70229;48.010;7.852;2023-06-10T02:46:51;19.80;57.30
80706;DHT22;70229;48.010;7.852;2023-06-10T02:49:16;19.80;57.00
80706;DHT22;70229;48.010;7.852;2023-06-10T02:51:42;19.80;57.20
80706;DHT22;70229;48.010;7.852;2023-06-10T02:54:08;19.60;57.80
80706;DHT22;70229;48.010;7.852;2023-06-10T02:56:33;19.80;57.50
80706;DHT22;70229;48.010;7.852;2023-06-10T02:58:59;19.60;57.50
80706;DHT22;70229;48.010;7.852;2023-06-10T03:01:25;19.50;57.90
80706;DHT22;70229;48.010;7.852;2023-06-10T03:03:51;19.40;58.50
80706;DHT22;70229;48.010;7.852;2023-06-10T03:06:18;19.50;58.30
80706;DHT22;70229;48.010;7.852;2023-06-10T03:08:43;20.50;59.60
80706;DHT22;70229;48.010;7.852;2023-06-10T03:11:10;20.20;59.40
80706;DHT22;70229;48.010;7.852;2023-06-10T03:13:37;20.50;59.60
80706;DHT22;70229;48.010;7.852;2023-06-10T03:16:03;19.90;59.40
80706;DHT22;70229;48.010;7.852;2023-06-10T03:18:29;19.30;59.60
80706;DHT22;70229;48.010;7.852;2023-06-10T03:20:55;19.30;59.50
80706;DHT22;70229;48.010;7.852;2023-06-10T03:23:22;19.30;59.50
80706;DHT22;70229;48.010;7.852;2023-06-10T03:25:48;19.30;59.80
80706;DHT22;70229;48.010;7.852;2023-06-10T03:28:14;19.20;60.00
80706;DHT22;70229;48.010;7.852;2023-06-10T03:30:39;19.50;60.30
80706;DHT22;70229;48.010;7.852;2023-06-10T03:33:05;19.20;59.90
80706;DHT22;70229;48.010;7.852;2023-06-10T03:35:31;19.00;60.00
80706;DHT22;70229;48.010;7.852;2023-06-10T03:37:58;19.70;60.50
80706;DHT22;70229;48.010;7.852;2023-06-10T03:40:23;19.00;60.10
80706;DHT22;70229;48.010;7.852;2023-06-10T03:42:49;18.90;60.70
80706;DHT22;70229;48.010;7.852;2023-06-10T03:45:15;19.00;60.80
80706;DHT22;70229;48.010;7.852;2023-06-10T03:47:40;19.10;59.50
80706;DHT22;70229;48.010;7.852;2023-06-10T03:50:07;19.10;59.20
80706;DHT22;70229;48.010;7.852;2023-06-10T03:52:37;19.10;60.30
80706;DHT22;70229;48.010;7.852;2023-06-10T03:55:03;19.10;60.10
80706;DHT22;70229;48.010;7.852;2023-06-10T03:57:29;19.00;60.40
80706;DHT22;70229;48.010;7.852;2023-06-10T03:59:55;19.00;60.20
80706;DHT22;70229;48.010;7.852;2023-06-10T04:02:21;19.00;60.30
80706;DHT22;70229;48.010;7.852;2023-06-10T04:04:48;18.90;60.20
80706;DHT22;70229;48.010;7.852;2023-06-10T04:07:13;18.90;60.80
80706;DHT22;70229;48.010;7.852;2023-06-10T04:09:39;19.00;60.00
80706;DHT22;70229;48.010;7.852;2023-06-10T04:12:05;18.90;60.10
80706;DHT22;70229;48.010;7.852;2023-06-10T04:14:34;18.90;60.20
80706;DHT22;70229;48.010;7.852;2023-06-10T04:17:01;18.90;60.00
80706;DHT22;70229;48.010;7.852;2023-06-10T04:19:27;19.00;59.70
80706;DHT22;70229;48.010;7.852;2023-06-10T04:21:53;19.00;59.70
80706;DHT22;70229;48.010;7.852;2023-06-10T04:24:19;19.20;59.90
80706;DHT22;70229;48.010;7.852;2023-06-10T04:26:44;19.10;59.90
80706;DHT22;70229;48.010;7.852;2023-06-10T04:29:10;19.20;60.00
80706;DHT22;70229;48.010;7.852;2023-06-10T04:31:36;19.70;60.40
80706;DHT22;70229;48.010;7.852;2023-06-10T04:34:01;19.20;60.20
80706;DHT22;70229;48.010;7.852;2023-06-10T04:36:27;19.20;60.10
80706;DHT22;70229;48.010;7.852;2023-06-10T04:38:54;19.20;60.20
80706;DHT22;70229;48.010;7.852;2023-06-10T04:41:20;19.20;60.50
80706;DHT22;70229;48.010;7.852;2023-06-10T04:43:46;19.20;61.40
80706;DHT22;70229;48.010;7.852;2023-06-10T04:46:11;19.30;61.10
80706;DHT22;70229;48.010;7.852;2023-06-10T04:48:38;19.40;60.90
80706;DHT22;70229;48.010;7.852;2023-06-10T04:51:04;19.40;62.10
80706;DHT22;70229;48.010;7.852;2023-06-10T04:53:30;19.40;62.40
80706;DHT22;70229;48.010;7.852;2023-06-10T04:55:57;19.30;62.00
80706;DHT22;70229;48.010;7.852;2023-06-10T04:58:23;19.40;62.40
80706;DHT22;70229;48.010;7.852;2023-06-10T05:00:49;19.40;62.60
80706;DHT22;70229;48.010;7.852;2023-06-10T05:03:14;19.50;61.80
80706;DHT22;70229;48.010;7.852;2023-06-10T05:05:40;19.60;60.50
80706;DHT22;70229;48.010;7.852;2023-06-10T05:08:06;19.60;59.90
80706;DHT22;70229;48.010;7.852;2023-06-10T05:10:31;19.60;59.80
80706;DHT22;70229;48.010;7.852;2023-06-10T05:12:58;19.60;59.90
80706;DHT22;70229;48.010;7.852;2023-06-10T05:15:24;19.80;59.30
80706;DHT22;70229;48.010;7.852;2023-06-10T05:17:49;19.90;59.10
80706;DHT22;70229;48.010;7.852;2023-06-10T05:20:15;19.90;59.10
80706;DHT22;70229;48.010;7.852;2023-06-10T05:22:41;20.00;58.90
80706;DHT22;70229;48.010;7.852;2023-06-10T05:25:07;20.10;59.00
80706;DHT22;70229;48.010;7.852;2023-06-10T05:27:32;20.10;58.30
80706;DHT22;70229;48.010;7.852;2023-06-10T05:29:58;20.10;58.30
80706;DHT22;70229;48.010;7.852;2023-06-10T05:32:23;20.20;58.30
80706;DHT22;70229;48.010;7.852;2023-06-10T05:34:49;20.30;58.10
80706;DHT22;70229;48.010;7.852;2023-06-10T05:37:15;20.40;58.30
80706;DHT22;70229;48.010;7.852;2023-06-10T05:39:40;20.60;59.00
80706;DHT22;70229;48.010;7.852;2023-06-10T05:42:07;20.60;58.80
80706;DHT22;70229;48.010;7.852;2023-06-10T05:44:33;20.50;59.10
80706;DHT22;70229;48.010;7.852;2023-06-10T05:46:59;20.60;58.70
80706;DHT22;70229;48.010;7.852;2023-06-10T05:49:24;20.90;58.40
80706;DHT22;70229;48.010;7.852;2023-06-10T05:51:50;20.90;58.50
80706;DHT22;70229;48.010;7.852;2023-06-10T05:54:18;21.00;58.40
80706;DHT22;70229;48.010;7.852;2023-06-10T05:56:43;21.20;58.00
80706;DHT22;70229;48.010;7.852;2023-06-10T05:59:09;21.10;57.20
80706;DHT22;70229;48.010;7.852;2023-06-10T06:01:35;21.30;57.40
80706;DHT22;70229;48.010;7.852;2023-06-10T06:04:00;21.30;57.20
80706;DHT22;70229;48.010;7.852;2023-06-10T06:06:26;21.50;57.60
80706;DHT22;70229;48.010;7.852;2023-06-10T06:08:51;21.50;57.10
80706;DHT22;70229;48.010;7.852;2023-06-10T06:11:17;21.50;55.90
80706;DHT22;70229;48.010;7.852;2023-06-10T06:13:42;21.70;55.80
80706;DHT22;70229;48.010;7.852;2023-06-10T06:16:08;21.70;55.50
80706;DHT22;70229;48.010;7.852;2023-06-10T06:18:34;21.80;56.10
80706;DHT22;70229;48.010;7.852;2023-06-10T06:20:59;21.80;56.50
80706;DHT22;70229;48.010;7.852;2023-06-10T06:23:25;21.90;55.80
80706;DHT22;70229;48.010;7.852;2023-06-10T06:25:50;21.90;55.70
80706;DHT22;70229;48.010;7.852;2023-06-10T06:28:16;22.00;55.70
80706;DHT22;70229;48.010;7.852;2023-06-10T06:30:42;22.00;55.60
80706;DHT22;70229;48.010;7.852;2023-06-10T06:33:07;22.00;55.20
80706;DHT22;70229;48.010;7.852;2023-06-10T06:35:33;22.20;55.80
80706;DHT22;70229;48.010;7.852;2023-06-10T06:37:59;22.10;55.60
80706;DHT22;70229;48.010;7.852;2023-06-10T06:40:25;22.10;55.60
80706;DHT22;70229;48.010;7.852;2023-06-10T06:42:50;22.10;56.20
80706;DHT22;70229;48.010;7.852;2023-06-10T06:45:16;22.10;56.30
80706;DHT22;70229;48.010;7.852;2023-06-10T06:47:42;22.20;56.40
80706;DHT22;70229;48.010;7.852;2023-06-10T06:50:09;22.30;56.10
80706;DHT22;70229;48.010;7.852;2023-06-10T06:52:34;22.10;56.20
80706;DHT22;70229;48.010;7.852;2023-06-10T06:55:00;22.30;56.40
80706;DHT22;70229;48.010;7.852;2023-06-10T06:57:25;22.30;57.00
80706;DHT22;70229;48.010;7.852;2023-06-10T06:59:51;22.50;56.00
80706;DHT22;70229;48.010;7.852;2023-06-10T07:02:16;22.70;55.60
80706;DHT22;70229;48.010;7.852;2023-06-10T07:04:42;22.50;55.80
80706;DHT22;70229;48.010;7.852;2023-06-10T07:07:08;22.60;56.30
80706;DHT22;70229;48.010;7.852;2023-06-10T07:09:37;22.60;55.90
80706;DHT22;70229;48.010;7.852;2023-06-10T07:12:03;22.60;56.50
80706;DHT22;70229;48.010;7.852;2023-06-10T07:14:29;22.60;56.90
80706;DHT22;70229;48.010;7.852;2023-06-10T07:16:54;23.00;56.70
80706;DHT22;70229;48.010;7.852;2023-06-10T07:19:20;23.20;56.00
80706;DHT22;70229;48.010;7.852;2023-06-10T07:21:45;23.20;55.20
80706;DHT22;70229;48.010;7.852;2023-06-10T07:24:11;23.30;55.40
80706;DHT22;70229;48.010;7.852;2023-06-10T07:26:37;23.60;54.90
80706;DHT22;70229;48.010;7.852;2023-06-10T07:29:02;23.60;54.40
80706;DHT22;70229;48.010;7.852;2023-06-10T07:31:28;23.70;54.40
80706;DHT22;70229;48.010;7.852;2023-06-10T07:33:53;23.50;55.20
80706;DHT22;70229;48.010;7.852;2023-06-10T07:36:19;23.70;54.90
80706;DHT22;70229;48.010;7.852;2023-06-10T07:38:44;23.70;54.20
80706;DHT22;70229;48.010;7.852;2023-06-10T07:41:10;23.60;54.60
80706;DHT22;70229;48.010;7.852;2023-06-10T07:43:37;23.60;55.20
80706;DHT22;70229;48.010;7.852;2023-06-10T07:46:03;23.70;54.40
80706;DHT22;70229;48.010;7.852;2023-06-10T07:48:30;24.00;54.50
80706;DHT22;70229;48.010;7.852;2023-06-10T07:50:56;24.10;54.00
80706;DHT22;70229;48.010;7.852;2023-06-10T07:53:22;24.20;53.50
80706;DHT22;70229;48.010;7.852;2023-06-10T07:55:47;24.20;53.50
80706;DHT22;70229;48.010;7.852;2023-06-10T07:58:13;24.10;53.90
80706;DHT22;70229;48.010;7.852;2023-06-10T08:00:38;24.10;53.90
80706;DHT22;70229;48.010;7.852;2023-06-10T08:03:04;24.10;53.80
80706;DHT22;70229;48.010;7.852;2023-06-10T08:05:29;24.00;53.40
80706;DHT22;70229;48.010;7.852;2023-06-10T08:07:55;24.00;54.50
80706;DHT22;70229;48.010;7.852;2023-06-10T08:10:21;24.30;53.50
80706;DHT22;70229;48.010;7.852;2023-06-10T08:12:47;24.40;53.50
80706;DHT22;70229;48.010;7.852;2023-06-10T08:15:12;24.30;53.60
80706;DHT22;70229;48.010;7.852;2023-06-10T08:17:38;24.60;53.20
80706;DHT22;70229;48.010;7.852;2023-06-10T08:20:05;24.30;53.20
80706;DHT22;70229;48.010;7.852;2023-06-10T08:22:31;24.50;54.10
80706;DHT22;70229;48.010;7.852;2023-06-10T08:24:57;24.80;52.90
80706;DHT22;70229;48.010;7.852;2023-06-10T08:27:22;24.90;53.20
80706;DHT22;70229;48.010;7.852;2023-06-10T08:29:48;25.10;53.00
80706;DHT22;70229;48.010;7.852;2023-06-10T08:32:13;25.00;52.50
80706;DHT22;70229;48.010;7.852;2023-06-10T08:34:39;24.80;52.50
80706;DHT22;70229;48.010;7.852;2023-06-10T08:37:06;24.90;52.80
80706;DHT22;70229;48.010;7.852;2023-06-10T08:39:32;24.90;52.40
80706;DHT22;70229;48.010;7.852;2023-06-10T08:42:22;25.00;52.40
80706;DHT22;70229;48.010;7.852;2023-06-10T08:44:55;25.20;51.50
80706;DHT22;70229;48.010;7.852;2023-06-10T08:47:23;25.50;51.30
80706;DHT22;70229;48.010;7.852;2023-06-10T08:49:49;25.50;51.20
80706;DHT22;70229;48.010;7.852;2023-06-10T08:52:16;25.50;50.90
80706;DHT22;70229;48.010;7.852;2023-06-10T08:54:59;25.50;51.00
80706;DHT22;70229;48.010;7.852;2023-06-10T08:57:28;25.30;51.20
80706;DHT22;70229;48.010;7.852;2023-06-10T08:59:57;25.30;52.30
80706;DHT22;70229;48.010;7.852;2023-06-10T09:02:24;25.40;51.30
80706;DHT22;70229;48.010;7.852;2023-06-10T09:04:50;25.40;51.70
80706;DHT22;70229;48.010;7.852;2023-06-10T09:07:16;25.50;51.90
80706;DHT22;70229;48.010;7.852;2023-06-10T09:09:42;25.80;52.00
80706;DHT22;70229;48.010;7.852;2023-06-10T09:12:09;25.70;51.30
80706;DHT22;70229;48.010;7.852;2023-06-10T09:14:34;25.80;50.80
80706;DHT22;70229;48.010;7.852;2023-06-10T09:17:01;25.80;50.70
80706;DHT22;70229;48.010;7.852;2023-06-10T09:19:27;26.20;50.50
80706;DHT22;70229;48.010;7.852;2023-06-10T09:21:53;26.40;51.20
80706;DHT22;70229;48.010;7.852;2023-06-10T09:24:22;26.30;50.00
80706;DHT22;70229;48.010;7.852;2023-06-10T09:26:47;26.10;50.40
80706;DHT22;70229;48.010;7.852;2023-06-10T09:29:13;26.10;51.00
80706;DHT22;70229;48.010;7.852;2023-06-10T09:31:39;26.00;51.20
80706;DHT22;70229;48.010;7.852;2023-06-10T09:36:35;26.00;51.30
80706;DHT22;70229;48.010;7.852;2023-06-10T09:39:02;26.00;50.50
80706;DHT22;70229;48.010;7.852;2023-06-10T09:41:35;26.10;51.40
80706;DHT22;70229;48.010;7.852;2023-06-10T09:44:01;26.10;51.00
80706;DHT22;70229;48.010;7.852;2023-06-10T09:46:31;26.10;51.10
80706;DHT22;70229;48.010;7.852;2023-06-10T09:49:00;26.20;51.70
80706;DHT22;70229;48.010;7.852;2023-06-10T09:51:26;26.40;50.80
80706;DHT22;70229;48.010;7.852;2023-06-10T09:53:52;26.80;50.40
80706;DHT22;70229;48.010;7.852;2023-06-10T09:56:18;26.80;50.40
80706;DHT22;70229;48.010;7.852;2023-06-10T09:58:45;27.00;49.40
80706;DHT22;70229;48.010;7.852;2023-06-10T10:01:13;27.30;49.00
80706;DHT22;70229;48.010;7.852;2023-06-10T10:03:46;27.50;48.40
80706;DHT22;70229;48.010;7.852;2023-06-10T10:06:14;27.50;48.50
80706;DHT22;70229;48.010;7.852;2023-06-10T10:08:39;27.70;48.40
80706;DHT22;70229;48.010;7.852;2023-06-10T10:11:05;27.60;47.80
80706;DHT22;70229;48.010;7.852;2023-06-10T10:13:33;27.60;48.30
80706;DHT22;70229;48.010;7.852;2023-06-10T10:16:04;27.60;46.60
80706;DHT22;70229;48.010;7.852;2023-06-10T10:18:31;27.50;48.00
80706;DHT22;70229;48.010;7.852;2023-06-10T10:20:59;27.50;48.00
80706;DHT22;70229;48.010;7.852;2023-06-10T10:23:31;27.80;46.70
80706;DHT22;70229;48.010;7.852;2023-06-10T10:25:58;28.00;46.50
80706;DHT22;70229;48.010;7.852;2023-06-10T10:28:30;28.20;47.00
80706;DHT22;70229;48.010;7.852;2023-06-10T10:31:03;28.50;46.40
80706;DHT22;70229;48.010;7.852;2023-06-10T10:33:42;28.40;44.30
80706;DHT22;70229;48.010;7.852;2023-06-10T10:36:11;28.40;46.30
80706;DHT22;70229;48.010;7.852;2023-06-10T10:38:37;28.50;46.00
80706;DHT22;70229;48.010;7.852;2023-06-10T10:41:04;28.70;44.30
80706;DHT22;70229;48.010;7.852;2023-06-10T10:43:31;28.80;45.00
80706;DHT22;70229;48.010;7.852;2023-06-10T10:46:01;28.60;44.70
80706;DHT22;70229;48.010;7.852;2023-06-10T10:48:38;28.30;45.40
80706;DHT22;70229;48.010;7.852;2023-06-10T10:51:04;27.60;45.40
80706;DHT22;70229;48.010;7.852;2023-06-10T10:53:30;27.90;48.50
80706;DHT22;70229;48.010;7.852;2023-06-10T10:58:30;27.90;44.90
80706;DHT22;70229;48.010;7.852;2023-06-10T11:00:57;28.10;44.40
80706;DHT22;70229;48.010;7.852;2023-06-10T11:03:28;28.40;44.30
80706;DHT22;70229;48.010;7.852;2023-06-10T11:05:57;28.50;45.50
80706;DHT22;70229;48.010;7.852;2023-06-10T11:10:57;28.80;43.10
80706;DHT22;70229;48.010;7.852;2023-06-10T11:13:25;28.80;42.80
80706;DHT22;70229;48.010;7.852;2023-06-10T11:15:51;28.70;43.90
80706;DHT22;70229;48.010;7.852;2023-06-10T11:18:28;28.70;42.60
80706;DHT22;70229;48.010;7.852;2023-06-10T11:20:56;28.60;42.70
80706;DHT22;70229;48.010;7.852;2023-06-10T11:23:30;28.30;43.90
80706;DHT22;70229;48.010;7.852;2023-06-10T11:29:04;28.20;43.70
80706;DHT22;70229;48.010;7.852;2023-06-10T11:31:30;28.10;44.60
80706;DHT22;70229;48.010;7.852;2023-06-10T11:33:58;28.20;45.40
80706;DHT22;70229;48.010;7.852;2023-06-10T11:36:25;28.10;43.50
80706;DHT22;70229;48.010;7.852;2023-06-10T11:38:57;28.10;43.40
80706;DHT22;70229;48.010;7.852;2023-06-10T11:41:24;27.90;44.00
80706;DHT22;70229;48.010;7.852;2023-06-10T11:43:51;28.00;43.70
80706;DHT22;70229;48.010;7.852;2023-06-10T11:46:17;28.40;44.30
80706;DHT22;70229;48.010;7.852;2023-06-10T11:48:56;28.70;42.50
80706;DHT22;70229;48.010;7.852;2023-06-10T11:51:24;28.50;42.00
80706;DHT22;70229;48.010;7.852;2023-06-10T11:53:50;28.40;42.60
80706;DHT22;70229;48.010;7.852;2023-06-10T11:56:25;28.60;42.20
80706;DHT22;70229;48.010;7.852;2023-06-10T11:59:05;28.50;42.00
80706;DHT22;70229;48.010;7.852;2023-06-10T12:01:33;28.90;43.30
80706;DHT22;70229;48.010;7.852;2023-06-10T12:04:06;29.10;42.30
80706;DHT22;70229;48.010;7.852;2023-06-10T12:06:49;28.80;40.90
80706;DHT22;70229;48.010;7.852;2023-06-10T12:09:22;28.80;42.10
80706;DHT22;70229;48.010;7.852;2023-06-10T12:11:54;29.10;43.30
80706;DHT22;70229;48.010;7.852;2023-06-10T12:14:54;29.40;40.90
80706;DHT22;70229;48.010;7.852;2023-06-10T12:17:36;29.90;40.70
80706;DHT22;70229;48.010;7.852;2023-06-10T12:20:07;29.70;40.20
80706;DHT22;70229;48.010;7.852;2023-06-10T12:22:43;29.20;39.50
80706;DHT22;70229;48.010;7.852;2023-06-10T12:25:10;29.10;40.90
80706;DHT22;70229;48.010;7.852;2023-06-10T12:27:36;29.00;40.80
80706;DHT22;70229;48.010;7.852;2023-06-10T12:30:03;29.00;41.70
80706;DHT22;70229;48.010;7.852;2023-06-10T12:32:42;28.90;41.20
80706;DHT22;70229;48.010;7.852;2023-06-10T12:35:10;28.90;41.10
80706;DHT22;70229;48.010;7.852;2023-06-10T12:37:36;28.80;41.10
80706;DHT22;70229;48.010;7.852;2023-06-10T12:40:03;28.80;41.80
80706;DHT22;70229;48.010;7.852;2023-06-10T12:42:31;28.70;42.00
80706;DHT22;70229;48.010;7.852;2023-06-10T12:44:59;28.60;42.30
80706;DHT22;70229;48.010;7.852;2023-06-10T12:47:34;28.40;40.10
80706;DHT22;70229;48.010;7.852;2023-06-10T12:50:07;28.20;41.50
80706;DHT22;70229;48.010;7.852;2023-06-10T12:52:33;28.20;43.30
80706;DHT22;70229;48.010;7.852;2023-06-10T12:54:58;28.20;44.20
80706;DHT22;70229;48.010;7.852;2023-06-10T12:57:25;28.10;43.40
80706;DHT22;70229;48.010;7.852;2023-06-10T12:59:51;27.90;45.10
80706;DHT22;70229;48.010;7.852;2023-06-10T13:02:24;27.90;48.00
80706;DHT22;70229;48.010;7.852;2023-06-10T13:04:50;27.70;47.00
80706;DHT22;70229;48.010;7.852;2023-06-10T13:07:16;27.50;48.70
80706;DHT22;70229;48.010;7.852;2023-06-10T13:09:42;27.20;53.40
80706;DHT22;70229;48.010;7.852;2023-06-10T13:12:09;27.10;56.50
80706;DHT22;70229;48.010;7.852;2023-06-10T13:14:35;26.80;56.10
80706;DHT22;70229;48.010;7.852;2023-06-10T13:17:03;26.60;57.40
80706;DHT22;70229;48.010;7.852;2023-06-10T13:19:30;26.60;59.60
80706;DHT22;70229;48.010;7.852;2023-06-10T13:21:56;26.10;61.70
80706;DHT22;70229;48.010;7.852;2023-06-10T13:24:21;25.80;63.70
80706;DHT22;70229;48.010;7.852;2023-06-10T13:26:47;25.60;67.00
80706;DHT22;70229;48.010;7.852;2023-06-10T13:29:12;25.40;65.90
80706;DHT22;70229;48.010;7.852;2023-06-10T13:31:40;24.90;67.70
80706;DHT22;70229;48.010;7.852;2023-06-10T13:34:06;24.70;67.40
80706;DHT22;70229;48.010;7.852;2023-06-10T13:36:31;24.80;68.20
80706;DHT22;70229;48.010;7.852;2023-06-10T13:38:57;24.50;71.90
80706;DHT22;70229;48.010;7.852;2023-06-10T13:41:23;24.40;73.00
80706;DHT22;70229;48.010;7.852;2023-06-10T13:43:48;24.60;73.90
80706;DHT22;70229;48.010;7.852;2023-06-10T13:46:14;24.60;74.30
80706;DHT22;70229;48.010;7.852;2023-06-10T13:48:39;24.80;73.00
80706;DHT22;70229;48.010;7.852;2023-06-10T13:51:05;24.60;72.40
80706;DHT22;70229;48.010;7.852;2023-06-10T13:53:32;24.60;72.70
80706;DHT22;70229;48.010;7.852;2023-06-10T13:55:57;24.80;71.90
80706;DHT22;70229;48.010;7.852;2023-06-10T13:58:23;25.00;71.40
80706;DHT22;70229;48.010;7.852;2023-06-10T14:00:49;25.10;72.00
80706;DHT22;70229;48.010;7.852;2023-06-10T14:03:14;25.40;73.30
80706;DHT22;70229;48.010;7.852;2023-06-10T14:05:40;25.70;73.20
80706;DHT22;70229;48.010;7.852;2023-06-10T14:08:05;26.30;71.90
80706;DHT22;70229;48.010;7.852;2023-06-10T14:10:31;27.00;69.30
80706;DHT22;70229;48.010;7.852;2023-06-10T14:12:57;27.30;61.70
80706;DHT22;70229;48.010;7.852;2023-06-10T14:15:22;27.80;58.80
80706;DHT22;70229;48.010;7.852;2023-06-10T14:17:48;28.20;54.70
80706;DHT22;70229;48.010;7.852;2023-06-10T14:20:13;28.40;53.40
80706;DHT22;70229;48.010;7.852;2023-06-10T14:22:39;28.40;50.40
80706;DHT22;70229;48.010;7.852;2023-06-10T14:25:05;28.30;51.50
80706;DHT22;70229;48.010;7.852;2023-06-10T14:27:31;27.90;53.30
80706;DHT22;70229;48.010;7.852;2023-06-10T14:29:57;27.80;55.10
80706;DHT22;70229;48.010;7.852;2023-06-10T14:32:22;27.50;54.90
80706;DHT22;70229;48.010;7.852;2023-06-10T14:34:48;27.20;57.60
80706;DHT22;70229;48.010;7.852;2023-06-10T14:37:13;27.00;60.80
80706;DHT22;70229;48.010;7.852;2023-06-10T14:39:39;26.90;59.70
80706;DHT22;70229;48.010;7.852;2023-06-10T14:42:05;26.70;53.40
80706;DHT22;70229;48.010;7.852;2023-06-10T14:44:30;26.70;53.70
80706;DHT22;70229;48.010;7.852;2023-06-10T14:46:56;26.70;59.60
80706;DHT22;70229;48.010;7.852;2023-06-10T14:49:22;26.60;65.10
80706;DHT22;70229;48.010;7.852;2023-06-10T14:51:47;26.50;63.50
80706;DHT22;70229;48.010;7.852;2023-06-10T14:54:17;26.60;63.60
80706;DHT22;70229;48.010;7.852;2023-06-10T14:56:43;26.60;65.30
80706;DHT22;70229;48.010;7.852;2023-06-10T14:59:08;26.80;65.00
80706;DHT22;70229;48.010;7.852;2023-06-10T15:01:34;27.30;60.50
80706;DHT22;70229;48.010;7.852;2023-06-10T15:03:59;27.50;60.50
80706;DHT22;70229;48.010;7.852;2023-06-10T15:06:25;28.00;54.80
80706;DHT22;70229;48.010;7.852;2023-06-10T15:08:51;28.30;54.70
80706;DHT22;70229;48.010;7.852;2023-06-10T15:11:17;28.70;50.10
80706;DHT22;70229;48.010;7.852;2023-06-10T15:13:43;28.60;49.30
80706;DHT22;70229;48.010;7.852;2023-06-10T15:16:08;28.50;45.90
80706;DHT22;70229;48.010;7.852;2023-06-10T15:18:34;28.40;49.30
80706;DHT22;70229;48.010;7.852;2023-06-10T15:21:00;28.20;46.60
80706;DHT22;70229;48.010;7.852;2023-06-10T15:23:25;28.20;48.10
80706;DHT22;70229;48.010;7.852;2023-06-10T15:25:51;28.00;48.20
80706;DHT22;70229;48.010;7.852;2023-06-10T15:28:17;27.90;48.30
80706;DHT22;70229;48.010;7.852;2023-06-10T15:30:42;27.80;48.60
80706;DHT22;70229;48.010;7.852;2023-06-10T15:33:08;27.80;49.40
80706;DHT22;70229;48.010;7.852;2023-06-10T15:35:33;27.70;49.20
80706;DHT22;70229;48.010;7.852;2023-06-10T15:37:59;27.70;50.50
80706;DHT22;70229;48.010;7.852;2023-06-10T15:40:25;27.60;53.00
80706;DHT22;70229;48.010;7.852;2023-06-10T15:42:51;27.50;52.40